sensor_id;sensor_type;location;lat;lon;timestamp;temperature;humidity
59301;DHT22;45073;52.740;6.784;2023-06-22T00:00:52;18.70;99.90
59301;DHT22;45073;52.740;6.784;2023-06-22T00:03:20;18.70;99.90
59301;DHT22;45073;52.740;6.784;2023-06-22T00:05:47;18.70;99.90
59301;DHT22;45073;52.740;6.784;2023-06-22T00:08:13;18.70;99.90
59301;DHT22;45073;52.740;6.784;2023-06-22T00:10:39;18.70;99.90
59301;DHT22;45073;52.740;6.784;2023-06-22T00:13:06;18.80;99.90
59301;DHT22;45073;52.740;6.784;2023-06-22T00:15:32;18.70;99.90
59301;DHT22;45073;52.740;6.784;2023-06-22T00:17:58;18.70;99.90
59301;DHT22;45073;52.740;6.784;2023-06-22T00:20:24;18.80;99.90
59301;DHT22;45073;52.740;6.784;2023-06-22T00:22:57;18.80;99.90
59301;DHT22;45073;52.740;6.784;2023-06-22T00:25:23;18.80;99.90
59301;DHT22;45073;52.740;6.784;2023-06-22T00:27:49;18.70;99.90
59301;DHT22;45073;52.740;6.784;2023-06-22T00:30:18;18.70;99.90
59301;DHT22;45073;52.740;6.784;2023-06-22T00:32:45;18.70;99.90
59301;DHT22;45073;52.740;6.784;2023-06-22T00:35:12;18.70;99.90
59301;DHT22;45073;52.740;6.784;2023-06-22T00:37:38;18.60;99.90
59301;DHT22;45073;52.740;6.784;2023-06-22T00:40:08;18.60;99.90
59301;DHT22;45073;52.740;6.784;2023-06-22T00:42:34;18.60;99.90
59301;DHT22;45073;52.740;6.784;2023-06-22T00:44:59;18.60;99.90
59301;DHT22;45073;52.740;6.784;2023-06-22T00:47:25;18.60;99.90
59301;DHT22;45073;52.740;6.784;2023-06-22T00:49:51;18.50;99.90
59301;DHT22;45073;52.740;6.784;2023-06-22T00:52:21;18.60;99.90
59301;DHT22;45073;52.740;6.784;2023-06-22T00:54:52;18.60;99.90
59301;DHT22;45073;52.740;6.784;2023-06-22T00:57:18;18.60;99.90
59301;DHT22;45073;52.740;6.784;2023-06-22T00:59:51;18.50;99.90
59301;DHT22;45073;52.740;6.784;2023-06-22T01:02:17;18.50;99.90
59301;DHT22;45073;52.740;6.784;2023-06-22T01:04:43;18.40;99.90
59301;DHT22;45073;52.740;6.784;2023-06-22T01:07:39;18.40;99.90
59301;DHT22;45073;52.740;6.784;2023-06-22T01:10:27;18.40;99.90
59301;DHT22;45073;52.740;6.784;2023-06-22T01:13:04;18.30;99.90
59301;DHT22;45073;52.740;6.784;2023-06-22T01:15:37;18.30;99.90
59301;DHT22;45073;52.740;6.784;2023-06-22T01:18:05;18.20;99.90
59301;DHT22;45073;52.740;6.784;2023-06-22T01:20:34;18.20;99.90
59301;DHT22;45073;52.740;6.784;2023-06-22T01:25:48;18.10;99.90
59301;DHT22;45073;52.740;6.784;2023-06-22T01:28:40;18.10;99.90
59301;DHT22;45073;52.740;6.784;2023-06-22T01:31:08;18.10;99.90
59301;DHT22;45073;52.740;6.784;2023-06-22T01:33:39;18.10;99.90
59301;DHT22;45073;52.740;6.784;2023-06-22T01:36:06;18.10;99.90
59301;DHT22;45073;52.740;6.784;2023-06-22T01:38:32;17.90;99.90
59301;DHT22;45073;52.740;6.784;2023-06-22T01:40:59;17.90;99.90
59301;DHT22;45073;52.740;6.784;2023-06-22T01:43:26;17.80;99.90
59301;DHT22;45073;52.740;6.784;2023-06-22T01:45:54;17.80;99.90
59301;DHT22;45073;52.740;6.784;2023-06-22T01:48:21;17.70;99.90
59301;DHT22;45073;52.740;6.784;2023-06-22T01:50:48;17.70;99.90
59301;DHT22;45073;52.740;6.784;2023-06-22T01:53:13;17.70;99.90
59301;DHT22;45073;52.740;6.784;2023-06-22T01:55:39;17.70;99.90
59301;DHT22;45073;52.740;6.784;2023-06-22T01:58:05;17.80;99.90
59301;DHT22;45073;52.740;6.784;2023-06-22T02:00:37;17.80;99.90
59301;DHT22;45073;52.740;6.784;2023-06-22T02:03:13;17.80;99.90
59301;DHT22;45073;52.740;6.784;2023-06-22T02:05:49;17.70;99.90
59301;DHT22;45073;52.740;6.784;2023-06-22T02:08:25;17.70;99.90
59301;DHT22;45073;52.740;6.784;2023-06-22T02:10:53;17.70;99.90
59301;DHT22;45073;52.740;6.784;2023-06-22T02:13:20;17.70;99.90
59301;DHT22;45073;52.740;6.784;2023-06-22T02:15:46;17.60;99.90
59301;DHT22;45073;52.740;6.784;2023-06-22T02:18:13;17.60;99.90
59301;DHT22;45073;52.740;6.784;2023-06-22T02:20:39;17.60;99.90
59301;DHT22;45073;52.740;6.784;2023-06-22T02:23:06;17.60;99.90
59301;DHT22;45073;52.740;6.784;2023-06-22T02:25:33;17.70;99.90
59301;DHT22;45073;52.740;6.784;2023-06-22T02:27:58;17.60;99.90
59301;DHT22;45073;52.740;6.784;2023-06-22T02:30:24;17.60;99.90
59301;DHT22;45073;52.740;6.784;2023-06-22T02:32:50;17.60;99.90
59301;DHT22;45073;52.740;6.784;2023-06-22T02:35:28;17.60;99.90
59301;DHT22;45073;52.740;6.784;2023-06-22T02:38:00;17.60;99.90
59301;DHT22;45073;52.740;6.784;2023-06-22T02:40:27;17.60;99.90
59301;DHT22;45073;52.740;6.784;2023-06-22T02:42:52;17.50;99.90
59301;DHT22;45073;52.740;6.784;2023-06-22T02:45:18;17.50;99.90
59301;DHT22;45073;52.740;6.784;2023-06-22T02:47:44;17.50;99.90
59301;DHT22;45073;52.740;6.784;2023-06-22T02:50:10;17.50;99.90
59301;DHT22;45073;52.740;6.784;2023-06-22T02:52:36;17.40;99.90
59301;DHT22;45073;52.740;6.784;2023-06-22T02:55:01;17.40;99.90
59301;DHT22;45073;52.740;6.784;2023-06-22T02:57:27;17.40;99.90
59301;DHT22;45073;52.740;6.784;2023-06-22T02:59:53;17.40;99.90
59301;DHT22;45073;52.740;6.784;2023-06-22T03:02:18;17.30;99.90
59301;DHT22;45073;52.740;6.784;2023-06-22T03:04:47;17.30;99.90
59301;DHT22;45073;52.740;6.784;2023-06-22T03:07:15;17.20;99.90
59301;DHT22;45073;52.740;6.784;2023-06-22T03:09:42;17.20;99.90
59301;DHT22;45073;52.740;6.784;2023-06-22T03:12:08;17.20;99.90
59301;DHT22;45073;52.740;6.784;2023-06-22T03:14:34;17.20;99.90
59301;DHT22;45073;52.740;6.784;2023-06-22T03:16:59;17.20;99.90
59301;DHT22;45073;52.740;6.784;2023-06-22T03:19:29;17.20;99.90
59301;DHT22;45073;52.740;6.784;2023-06-22T03:21:57;17.10;99.90
59301;DHT22;45073;52.740;6.784;2023-06-22T03:24:22;17.10;99.90
59301;DHT22;45073;52.740;6.784;2023-06-22T03:26:48;17.10;99.90
59301;DHT22;45073;52.740;6.784;2023-06-22T03:29:14;17.20;99.90
59301;DHT22;45073;52.740;6.784;2023-06-22T03:31:39;17.20;99.90
59301;DHT22;45073;52.740;6.784;2023-06-22T03:34:05;17.20;99.90
59301;DHT22;45073;52.740;6.784;2023-06-22T03:36:31;17.20;99.90
59301;DHT22;45073;52.740;6.784;2023-06-22T03:38:56;17.20;99.90
59301;DHT22;45073;52.740;6.784;2023-06-22T03:41:22;17.20;99.90
59301;DHT22;45073;52.740;6.784;2023-06-22T03:43:48;17.20;99.90
59301;DHT22;45073;52.740;6.784;2023-06-22T03:46:13;17.20;99.90
59301;DHT22;45073;52.740;6.784;2023-06-22T03:48:39;17.20;99.90
59301;DHT22;45073;52.740;6.784;2023-06-22T03:51:04;17.10;99.90
59301;DHT22;45073;52.740;6.784;2023-06-22T03:53:30;17.10;99.90
59301;DHT22;45073;52.740;6.784;2023-06-22T03:55:56;17.00;99.90
59301;DHT22;45073;52.740;6.784;2023-06-22T03:58:21;17.00;99.90
59301;DHT22;45073;52.740;6.784;2023-06-22T04:00:51;17.00;99.90
59301;DHT22;45073;52.740;6.784;2023-06-22T04:03:17;17.00;99.90
59301;DHT22;45073;52.740;6.784;2023-06-22T04:05:44;17.00;99.90
59301;DHT22;45073;52.740;6.784;2023-06-22T04:08:10;17.00;99.90
59301;DHT22;45073;52.740;6.784;2023-06-22T04:10:36;16.90;99.90
59301;DHT22;45073;52.740;6.784;2023-06-22T04:13:02;17.00;99.90
59301;DHT22;45073;52.740;6.784;2023-06-22T04:15:27;16.90;99.90
59301;DHT22;45073;52.740;6.784;2023-06-22T04:17:54;16.90;99.90
59301;DHT22;45073;52.740;6.784;2023-06-22T04:20:20;16.90;99.90
59301;DHT22;45073;52.740;6.784;2023-06-22T04:22:45;16.90;99.90
59301;DHT22;45073;52.740;6.784;2023-06-22T04:25:11;16.90;99.90
59301;DHT22;45073;52.740;6.784;2023-06-22T04:27:37;16.90;99.90
59301;DHT22;45073;52.740;6.784;2023-06-22T04:30:06;16.80;99.90
59301;DHT22;45073;52.740;6.784;2023-06-22T04:32:33;16.80;99.90
59301;DHT22;45073;52.740;6.784;2023-06-22T04:34:59;16.80;99.90
59301;DHT22;45073;52.740;6.784;2023-06-22T04:37:30;16.60;99.90
59301;DHT22;45073;52.740;6.784;2023-06-22T04:39:55;16.60;99.90
59301;DHT22;45073;52.740;6.784;2023-06-22T04:42:21;16.60;99.90
59301;DHT22;45073;52.740;6.784;2023-06-22T04:44:46;16.60;99.90
59301;DHT22;45073;52.740;6.784;2023-06-22T04:47:12;16.60;99.90
59301;DHT22;45073;52.740;6.784;2023-06-22T04:49:37;16.60;99.90
59301;DHT22;45073;52.740;6.784;2023-06-22T04:52:07;16.60;99.90
59301;DHT22;45073;52.740;6.784;2023-06-22T04:54:34;16.60;99.90
59301;DHT22;45073;52.740;6.784;2023-06-22T04:57:05;16.70;99.90
59301;DHT22;45073;52.740;6.784;2023-06-22T04:59:36;16.70;99.90
59301;DHT22;45073;52.740;6.784;2023-06-22T05:02:02;16.70;99.90
59301;DHT22;45073;52.740;6.784;2023-06-22T05:04:29;16.80;99.90
59301;DHT22;45073;52.740;6.784;2023-06-22T05:06:59;16.80;99.90
59301;DHT22;45073;52.740;6.784;2023-06-22T05:09:25;16.90;99.90
59301;DHT22;45073;52.740;6.784;2023-06-22T05:11:51;17.00;99.90
59301;DHT22;45073;52.740;6.784;2023-06-22T05:14:17;17.20;99.90
59301;DHT22;45073;52.740;6.784;2023-06-22T05:16:44;17.20;99.90
59301;DHT22;45073;52.740;6.784;2023-06-22T05:19:10;17.40;99.90
59301;DHT22;45073;52.740;6.784;2023-06-22T05:21:35;17.50;99.90
59301;DHT22;45073;52.740;6.784;2023-06-22T05:24:01;17.60;99.90
59301;DHT22;45073;52.740;6.784;2023-06-22T05:26:29;17.70;99.90
59301;DHT22;45073;52.740;6.784;2023-06-22T05:28:55;17.80;99.90
59301;DHT22;45073;52.740;6.784;2023-06-22T05:31:21;17.80;99.90
59301;DHT22;45073;52.740;6.784;2023-06-22T05:33:48;17.90;99.90
59301;DHT22;45073;52.740;6.784;2023-06-22T05:36:14;18.10;99.90
59301;DHT22;45073;52.740;6.784;2023-06-22T05:38:41;18.10;99.90
59301;DHT22;45073;52.740;6.784;2023-06-22T05:41:07;18.20;99.90
59301;DHT22;45073;52.740;6.784;2023-06-22T05:43:33;18.30;99.90
59301;DHT22;45073;52.740;6.784;2023-06-22T05:46:00;18.40;99.90
59301;DHT22;45073;52.740;6.784;2023-06-22T05:48:26;18.50;99.90
59301;DHT22;45073;52.740;6.784;2023-06-22T05:50:52;18.50;99.90
59301;DHT22;45073;52.740;6.784;2023-06-22T05:53:17;18.60;99.90
59301;DHT22;45073;52.740;6.784;2023-06-22T05:55:43;18.60;99.90
59301;DHT22;45073;52.740;6.784;2023-06-22T05:58:09;18.70;99.90
59301;DHT22;45073;52.740;6.784;2023-06-22T06:00:35;18.80;99.90
59301;DHT22;45073;52.740;6.784;2023-06-22T06:03:01;18.80;99.90
59301;DHT22;45073;52.740;6.784;2023-06-22T06:05:33;18.90;99.90
59301;DHT22;45073;52.740;6.784;2023-06-22T06:07:59;19.00;99.90
59301;DHT22;45073;52.740;6.784;2023-06-22T06:10:25;19.00;99.90
59301;DHT22;45073;52.740;6.784;2023-06-22T06:12:51;19.10;99.90
59301;DHT22;45073;52.740;6.784;2023-06-22T06:15:17;19.20;99.90
59301;DHT22;45073;52.740;6.784;2023-06-22T06:17:51;19.30;99.90
59301;DHT22;45073;52.740;6.784;2023-06-22T06:20:20;19.30;99.90
59301;DHT22;45073;52.740;6.784;2023-06-22T06:22:46;19.40;99.90
59301;DHT22;45073;52.740;6.784;2023-06-22T06:25:12;19.50;99.90
59301;DHT22;45073;52.740;6.784;2023-06-22T06:27:48;19.60;99.90
59301;DHT22;45073;52.740;6.784;2023-06-22T06:30:15;19.70;99.90
59301;DHT22;45073;52.740;6.784;2023-06-22T06:32:41;19.80;99.90
59301;DHT22;45073;52.740;6.784;2023-06-22T06:35:09;19.90;99.90
59301;DHT22;45073;52.740;6.784;2023-06-22T06:37:39;19.90;99.90
59301;DHT22;45073;52.740;6.784;2023-06-22T06:40:06;20.10;99.90
59301;DHT22;45073;52.740;6.784;2023-06-22T06:42:42;20.10;99.90
59301;DHT22;45073;52.740;6.784;2023-06-22T06:45:21;20.20;99.90
59301;DHT22;45073;52.740;6.784;2023-06-22T06:47:51;20.30;99.90
59301;DHT22;45073;52.740;6.784;2023-06-22T06:50:17;20.30;99.90
59301;DHT22;45073;52.740;6.784;2023-06-22T06:52:43;20.40;99.90
59301;DHT22;45073;52.740;6.784;2023-06-22T06:55:09;20.40;99.90
59301;DHT22;45073;52.740;6.784;2023-06-22T06:57:38;20.50;99.90
59301;DHT22;45073;52.740;6.784;2023-06-22T07:00:09;20.60;99.90
59301;DHT22;45073;52.740;6.784;2023-06-22T07:02:38;20.70;99.90
59301;DHT22;45073;52.740;6.784;2023-06-22T07:05:05;20.70;99.90
59301;DHT22;45073;52.740;6.784;2023-06-22T07:07:31;20.70;99.90
59301;DHT22;45073;52.740;6.784;2023-06-22T07:09:57;20.80;99.90
59301;DHT22;45073;52.740;6.784;2023-06-22T07:12:23;20.90;99.90
59301;DHT22;45073;52.740;6.784;2023-06-22T07:14:48;21.00;99.90
59301;DHT22;45073;52.740;6.784;2023-06-22T07:17:15;21.10;99.90
59301;DHT22;45073;52.740;6.784;2023-06-22T07:19:41;21.10;99.90
59301;DHT22;45073;52.740;6.784;2023-06-22T07:22:07;21.10;99.90
59301;DHT22;45073;52.740;6.784;2023-06-22T07:24:33;21.20;99.90
59301;DHT22;45073;52.740;6.784;2023-06-22T07:26:58;21.30;99.90
59301;DHT22;45073;52.740;6.784;2023-06-22T07:29:25;21.40;99.90
59301;DHT22;45073;52.740;6.784;2023-06-22T07:31:52;21.40;99.90
59301;DHT22;45073;52.740;6.784;2023-06-22T07:34:18;21.50;99.90
59301;DHT22;45073;52.740;6.784;2023-06-22T07:36:44;21.60;99.90
59301;DHT22;45073;52.740;6.784;2023-06-22T07:39:10;21.60;99.90
59301;DHT22;45073;52.740;6.784;2023-06-22T07:41:35;21.70;99.90
59301;DHT22;45073;52.740;6.784;2023-06-22T07:44:02;21.80;99.90
59301;DHT22;45073;52.740;6.784;2023-06-22T07:46:29;21.80;99.90
59301;DHT22;45073;52.740;6.784;2023-06-22T07:48:56;21.90;99.90
59301;DHT22;45073;52.740;6.784;2023-06-22T07:51:22;21.90;99.90
59301;DHT22;45073;52.740;6.784;2023-06-22T07:53:47;22.00;99.90
59301;DHT22;45073;52.740;6.784;2023-06-22T07:56:13;22.10;99.90
59301;DHT22;45073;52.740;6.784;2023-06-22T07:58:39;22.10;99.90
59301;DHT22;45073;52.740;6.784;2023-06-22T08:01:05;22.20;99.90
59301;DHT22;45073;52.740;6.784;2023-06-22T08:03:31;22.30;99.90
59301;DHT22;45073;52.740;6.784;2023-06-22T08:05:57;22.40;99.90
59301;DHT22;45073;52.740;6.784;2023-06-22T08:08:23;22.40;99.90
59301;DHT22;45073;52.740;6.784;2023-06-22T08:10:49;22.50;99.90
59301;DHT22;45073;52.740;6.784;2023-06-22T08:13:15;22.60;99.90
59301;DHT22;45073;52.740;6.784;2023-06-22T08:15:40;22.70;99.90
59301;DHT22;45073;52.740;6.784;2023-06-22T08:18:06;22.70;99.90
59301;DHT22;45073;52.740;6.784;2023-06-22T08:20:32;22.80;99.90
59301;DHT22;45073;52.740;6.784;2023-06-22T08:22:58;22.90;99.90
59301;DHT22;45073;52.740;6.784;2023-06-22T08:25:26;22.90;99.90
59301;DHT22;45073;52.740;6.784;2023-06-22T08:27:51;22.90;99.90
59301;DHT22;45073;52.740;6.784;2023-06-22T08:30:17;23.00;99.90
59301;DHT22;45073;52.740;6.784;2023-06-22T08:32:44;23.10;99.90
59301;DHT22;45073;52.740;6.784;2023-06-22T08:35:09;23.10;99.90
59301;DHT22;45073;52.740;6.784;2023-06-22T08:37:36;23.20;99.90
59301;DHT22;45073;52.740;6.784;2023-06-22T08:40:04;23.20;99.90
59301;DHT22;45073;52.740;6.784;2023-06-22T08:42:30;23.30;99.90
59301;DHT22;45073;52.740;6.784;2023-06-22T08:44:56;23.40;99.90
59301;DHT22;45073;52.740;6.784;2023-06-22T08:47:22;23.40;99.90
59301;DHT22;45073;52.740;6.784;2023-06-22T08:49:48;23.50;99.90
59301;DHT22;45073;52.740;6.784;2023-06-22T08:52:14;23.50;99.90
59301;DHT22;45073;52.740;6.784;2023-06-22T08:54:40;23.60;99.90
59301;DHT22;45073;52.740;6.784;2023-06-22T08:57:06;23.70;99.90
59301;DHT22;45073;52.740;6.784;2023-06-22T08:59:31;23.80;99.90
59301;DHT22;45073;52.740;6.784;2023-06-22T09:01:57;23.80;99.90
59301;DHT22;45073;52.740;6.784;2023-06-22T09:04:22;23.90;99.90
59301;DHT22;45073;52.740;6.784;2023-06-22T09:06:48;24.00;99.90
59301;DHT22;45073;52.740;6.784;2023-06-22T09:09:16;24.00;99.90
59301;DHT22;45073;52.740;6.784;2023-06-22T09:11:42;24.10;99.90
59301;DHT22;45073;52.740;6.784;2023-06-22T09:14:14;24.20;99.90
59301;DHT22;45073;52.740;6.784;2023-06-22T09:16:39;24.20;99.90
59301;DHT22;45073;52.740;6.784;2023-06-22T09:19:05;24.30;99.90
59301;DHT22;45073;52.740;6.784;2023-06-22T09:21:35;24.40;99.90
59301;DHT22;45073;52.740;6.784;2023-06-22T09:24:04;24.50;99.90
59301;DHT22;45073;52.740;6.784;2023-06-22T09:26:30;24.50;99.90
59301;DHT22;45073;52.740;6.784;2023-06-22T09:28:55;24.60;99.90
59301;DHT22;45073;52.740;6.784;2023-06-22T09:31:48;24.70;99.90
59301;DHT22;45073;52.740;6.784;2023-06-22T09:34:17;24.80;99.90
59301;DHT22;45073;52.740;6.784;2023-06-22T09:36:47;24.80;99.30
59301;DHT22;45073;52.740;6.784;2023-06-22T09:39:13;24.90;98.30
59301;DHT22;45073;52.740;6.784;2023-06-22T09:41:38;25.00;97.70
59301;DHT22;45073;52.740;6.784;2023-06-22T09:44:04;25.00;97.70
59301;DHT22;45073;52.740;6.784;2023-06-22T09:46:30;25.10;96.60
59301;DHT22;45073;52.740;6.784;2023-06-22T09:48:55;25.10;96.50
59301;DHT22;45073;52.740;6.784;2023-06-22T09:51:21;25.10;97.00
59301;DHT22;45073;52.740;6.784;2023-06-22T09:53:51;25.20;97.00
59301;DHT22;45073;52.740;6.784;2023-06-22T09:56:17;25.30;97.20
59301;DHT22;45073;52.740;6.784;2023-06-22T09:58:44;25.40;96.60
59301;DHT22;45073;52.740;6.784;2023-06-22T10:01:10;25.40;95.50
59301;DHT22;45073;52.740;6.784;2023-06-22T10:03:36;25.50;95.10
59301;DHT22;45073;52.740;6.784;2023-06-22T10:06:02;25.50;94.50
59301;DHT22;45073;52.740;6.784;2023-06-22T10:08:28;25.60;93.90
59301;DHT22;45073;52.740;6.784;2023-06-22T10:10:53;25.70;93.40
59301;DHT22;45073;52.740;6.784;2023-06-22T10:13:19;25.70;92.50
59301;DHT22;45073;52.740;6.784;2023-06-22T10:15:45;25.80;92.20
59301;DHT22;45073;52.740;6.784;2023-06-22T10:18:16;25.80;92.10
59301;DHT22;45073;52.740;6.784;2023-06-22T10:20:42;25.90;91.70
59301;DHT22;45073;52.740;6.784;2023-06-22T10:23:08;25.90;91.50
59301;DHT22;45073;52.740;6.784;2023-06-22T10:25:34;26.00;91.10
59301;DHT22;45073;52.740;6.784;2023-06-22T10:27:59;26.10;90.50
59301;DHT22;45073;52.740;6.784;2023-06-22T10:30:25;26.20;90.60
59301;DHT22;45073;52.740;6.784;2023-06-22T10:32:51;26.20;90.40
59301;DHT22;45073;52.740;6.784;2023-06-22T10:35:16;26.30;90.00
59301;DHT22;45073;52.740;6.784;2023-06-22T10:37:46;26.30;88.70
59301;DHT22;45073;52.740;6.784;2023-06-22T10:40:13;26.40;87.90
59301;DHT22;45073;52.740;6.784;2023-06-22T10:42:40;26.50;87.10
59301;DHT22;45073;52.740;6.784;2023-06-22T10:45:06;26.60;88.00
59301;DHT22;45073;52.740;6.784;2023-06-22T10:47:32;26.70;86.70
59301;DHT22;45073;52.740;6.784;2023-06-22T10:49:57;26.90;86.40
59301;DHT22;45073;52.740;6.784;2023-06-22T10:52:23;27.00;85.50
59301;DHT22;45073;52.740;6.784;2023-06-22T10:54:48;27.10;83.90
59301;DHT22;45073;52.740;6.784;2023-06-22T10:57:14;27.10;82.00
59301;DHT22;45073;52.740;6.784;2023-06-22T10:59:40;27.10;82.00
59301;DHT22;45073;52.740;6.784;2023-06-22T11:02:05;27.20;82.70
59301;DHT22;45073;52.740;6.784;2023-06-22T11:04:31;27.20;82.60
59301;DHT22;45073;52.740;6.784;2023-06-22T11:06:56;27.30;83.40
59301;DHT22;45073;52.740;6.784;2023-06-22T11:09:22;27.50;83.40
59301;DHT22;45073;52.740;6.784;2023-06-22T11:11:50;27.60;81.10
59301;DHT22;45073;52.740;6.784;2023-06-22T11:14:16;27.60;79.20
59301;DHT22;45073;52.740;6.784;2023-06-22T11:16:42;27.50;78.10
59301;DHT22;45073;52.740;6.784;2023-06-22T11:19:08;27.50;78.70
59301;DHT22;45073;52.740;6.784;2023-06-22T11:21:33;27.50;78.90
59301;DHT22;45073;52.740;6.784;2023-06-22T11:23:59;27.50;77.80
59301;DHT22;45073;52.740;6.784;2023-06-22T11:26:25;27.40;75.60
59301;DHT22;45073;52.740;6.784;2023-06-22T11:28:54;27.40;76.20
59301;DHT22;45073;52.740;6.784;2023-06-22T11:31:19;27.40;76.50
59301;DHT22;45073;52.740;6.784;2023-06-22T11:33:45;27.30;76.40
59301;DHT22;45073;52.740;6.784;2023-06-22T11:36:14;27.30;78.20
59301;DHT22;45073;52.740;6.784;2023-06-22T11:38:40;27.30;77.90
59301;DHT22;45073;52.740;6.784;2023-06-22T11:41:06;27.30;77.50
59301;DHT22;45073;52.740;6.784;2023-06-22T11:43:32;27.30;77.20
59301;DHT22;45073;52.740;6.784;2023-06-22T11:45:57;27.30;77.20
59301;DHT22;45073;52.740;6.784;2023-06-22T11:48:26;27.30;76.90
59301;DHT22;45073;52.740;6.784;2023-06-22T11:50:55;27.30;77.60
59301;DHT22;45073;52.740;6.784;2023-06-22T11:53:21;27.40;78.40
59301;DHT22;45073;52.740;6.784;2023-06-22T11:55:47;27.40;77.10
59301;DHT22;45073;52.740;6.784;2023-06-22T11:58:14;27.40;76.70
59301;DHT22;45073;52.740;6.784;2023-06-22T12:00:40;27.30;75.90
59301;DHT22;45073;52.740;6.784;2023-06-22T12:03:05;27.30;75.80
59301;DHT22;45073;52.740;6.784;2023-06-22T12:05:31;27.30;76.10
59301;DHT22;45073;52.740;6.784;2023-06-22T12:07:56;27.40;76.50
59301;DHT22;45073;52.740;6.784;2023-06-22T12:10:23;27.40;76.50
59301;DHT22;45073;52.740;6.784;2023-06-22T12:12:50;27.40;75.50
59301;DHT22;45073;52.740;6.784;2023-06-22T12:15:15;27.40;75.70
59301;DHT22;45073;52.740;6.784;2023-06-22T12:17:41;27.40;75.70
59301;DHT22;45073;52.740;6.784;2023-06-22T12:20:07;27.40;76.50
59301;DHT22;45073;52.740;6.784;2023-06-22T12:22:33;27.50;76.90
59301;DHT22;45073;52.740;6.784;2023-06-22T12:24:59;27.50;76.30
59301;DHT22;45073;52.740;6.784;2023-06-22T12:27:25;27.50;76.00
59301;DHT22;45073;52.740;6.784;2023-06-22T12:29:51;27.50;74.80
59301;DHT22;45073;52.740;6.784;2023-06-22T12:32:17;27.40;74.90
59301;DHT22;45073;52.740;6.784;2023-06-22T12:34:43;27.40;74.30
59301;DHT22;45073;52.740;6.784;2023-06-22T12:37:09;27.30;72.90
59301;DHT22;45073;52.740;6.784;2023-06-22T12:39:35;27.30;72.30
59301;DHT22;45073;52.740;6.784;2023-06-22T12:42:01;27.20;71.60
59301;DHT22;45073;52.740;6.784;2023-06-22T12:44:26;27.20;72.00
59301;DHT22;45073;52.740;6.784;2023-06-22T12:46:52;27.10;72.30
59301;DHT22;45073;52.740;6.784;2023-06-22T12:49:18;27.10;72.90
59301;DHT22;45073;52.740;6.784;2023-06-22T12:51:44;27.10;72.50
59301;DHT22;45073;52.740;6.784;2023-06-22T12:54:10;26.90;72.30
59301;DHT22;45073;52.740;6.784;2023-06-22T12:56:36;26.90;72.50
59301;DHT22;45073;52.740;6.784;2023-06-22T12:59:04;26.90;72.40
59301;DHT22;45073;52.740;6.784;2023-06-22T13:01:30;26.80;73.00
59301;DHT22;45073;52.740;6.784;2023-06-22T13:03:57;26.70;72.70
59301;DHT22;45073;52.740;6.784;2023-06-22T13:06:23;26.70;73.10
59301;DHT22;45073;52.740;6.784;2023-06-22T13:08:49;26.60;73.60
59301;DHT22;45073;52.740;6.784;2023-06-22T13:11:14;26.60;73.20
59301;DHT22;45073;52.740;6.784;2023-06-22T13:13:40;26.60;73.20
59301;DHT22;45073;52.740;6.784;2023-06-22T13:16:06;26.50;73.20
59301;DHT22;45073;52.740;6.784;2023-06-22T13:18:32;26.50;73.30
59301;DHT22;45073;52.740;6.784;2023-06-22T13:20:58;26.50;73.60
59301;DHT22;45073;52.740;6.784;2023-06-22T13:23:25;26.40;73.80
59301;DHT22;45073;52.740;6.784;2023-06-22T13:25:51;26.40;74.20
59301;DHT22;45073;52.740;6.784;2023-06-22T13:28:16;26.40;74.90
59301;DHT22;45073;52.740;6.784;2023-06-22T13:30:42;26.30;74.50
59301;DHT22;45073;52.740;6.784;2023-06-22T13:33:10;26.40;74.80
59301;DHT22;45073;52.740;6.784;2023-06-22T13:35:36;26.30;75.10
59301;DHT22;45073;52.740;6.784;2023-06-22T13:38:03;26.30;74.80
59301;DHT22;45073;52.740;6.784;2023-06-22T13:40:28;26.30;74.60
59301;DHT22;45073;52.740;6.784;2023-06-22T13:42:55;26.20;74.70
59301;DHT22;45073;52.740;6.784;2023-06-22T13:45:21;26.20;75.10
59301;DHT22;45073;52.740;6.784;2023-06-22T13:47:46;26.20;75.80
59301;DHT22;45073;52.740;6.784;2023-06-22T13:50:12;26.20;75.80
59301;DHT22;45073;52.740;6.784;2023-06-22T13:52:40;26.20;76.20
59301;DHT22;45073;52.740;6.784;2023-06-22T13:55:06;26.20;77.00
59301;DHT22;45073;52.740;6.784;2023-06-22T13:57:32;26.20;78.30
59301;DHT22;45073;52.740;6.784;2023-06-22T13:59:59;26.10;79.00
59301;DHT22;45073;52.740;6.784;2023-06-22T14:02:26;26.20;80.10
59301;DHT22;45073;52.740;6.784;2023-06-22T14:04:51;26.10;80.30
59301;DHT22;45073;52.740;6.784;2023-06-22T14:07:17;26.20;80.10
59301;DHT22;45073;52.740;6.784;2023-06-22T14:09:44;26.10;79.30
59301;DHT22;45073;52.740;6.784;2023-06-22T14:12:11;26.10;78.80
59301;DHT22;45073;52.740;6.784;2023-06-22T14:14:36;26.10;78.70
59301;DHT22;45073;52.740;6.784;2023-06-22T14:17:03;26.10;79.40
59301;DHT22;45073;52.740;6.784;2023-06-22T14:19:29;26.10;78.70
59301;DHT22;45073;52.740;6.784;2023-06-22T14:21:55;26.10;79.10
59301;DHT22;45073;52.740;6.784;2023-06-22T14:24:22;26.10;79.50
59301;DHT22;45073;52.740;6.784;2023-06-22T14:26:48;26.00;79.50
59301;DHT22;45073;52.740;6.784;2023-06-22T14:29:14;26.00;78.70
59301;DHT22;45073;52.740;6.784;2023-06-22T14:31:39;25.90;78.60
59301;DHT22;45073;52.740;6.784;2023-06-22T14:34:05;25.90;78.70
59301;DHT22;45073;52.740;6.784;2023-06-22T14:36:31;25.90;79.60
59301;DHT22;45073;52.740;6.784;2023-06-22T14:38:57;25.90;80.70
59301;DHT22;45073;52.740;6.784;2023-06-22T14:41:22;25.90;81.30
59301;DHT22;45073;52.740;6.784;2023-06-22T14:43:49;25.80;81.60
59301;DHT22;45073;52.740;6.784;2023-06-22T14:46:16;25.80;81.90
59301;DHT22;45073;52.740;6.784;2023-06-22T14:48:42;25.80;81.80
59301;DHT22;45073;52.740;6.784;2023-06-22T14:51:08;25.70;82.80
59301;DHT22;45073;52.740;6.784;2023-06-22T14:53:35;25.70;83.50
59301;DHT22;45073;52.740;6.784;2023-06-22T14:56:01;25.70;83.40
59301;DHT22;45073;52.740;6.784;2023-06-22T14:58:33;25.70;84.90
59301;DHT22;45073;52.740;6.784;2023-06-22T15:01:02;25.70;85.20
59301;DHT22;45073;52.740;6.784;2023-06-22T15:03:29;25.60;87.00
59301;DHT22;45073;52.740;6.784;2023-06-22T15:05:57;25.60;89.00
59301;DHT22;45073;52.740;6.784;2023-06-22T15:08:23;25.50;90.40
59301;DHT22;45073;52.740;6.784;2023-06-22T15:10:49;25.50;91.30
59301;DHT22;45073;52.740;6.784;2023-06-22T15:13:15;25.40;92.20
59301;DHT22;45073;52.740;6.784;2023-06-22T15:15:43;25.30;92.80
59301;DHT22;45073;52.740;6.784;2023-06-22T15:18:08;25.30;93.00
59301;DHT22;45073;52.740;6.784;2023-06-22T15:20:34;25.20;93.50
59301;DHT22;45073;52.740;6.784;2023-06-22T15:22:59;25.20;93.60
59301;DHT22;45073;52.740;6.784;2023-06-22T15:25:25;25.10;94.30
59301;DHT22;45073;52.740;6.784;2023-06-22T15:27:51;25.10;94.40
59301;DHT22;45073;52.740;6.784;2023-06-22T15:30:16;25.00;95.30